Time;durP1;ratioP1;P1;durP2;ratioP2;P2;SDS_P1;SDS_P2;PMS_P1;PMS_P2;Temp;Humidity;BMP_temperature;BMP_pressure;BME280_temperature;BME280_humidity;BME280_pressure;Samples;Min_cycle;Max_cycle;Signal;HPM_P1;HPM_P2
2021/08/08 00:02:16;;;;;;;1.63;1.23;;;19.20;76.50;;;;;;5075121;28;20444;-73
2021/08/08 00:04:43;;;;;;;3.67;1.10;;;19.20;77.10;;;;;;5074612;28;20471;-73
2021/08/08 00:07:10;;;;;;;6.13;1.17;;;19.20;76.70;;;;;;5075016;28;20448;-73
2021/08/08 00:09:38;;;;;;;2.97;1.00;;;19.20;77.00;;;;;;5075000;28;20445;-73
2021/08/08 00:12:05;;;;;;;2.77;1.23;;;19.20;77.00;;;;;;5074920;28;20449;-73
2021/08/08 00:14:32;;;;;;;1.93;1.30;;;19.20;76.80;;;;;;5074837;28;20445;-73
2021/08/08 00:16:59;;;;;;;1.40;1.30;;;19.20;77.10;;;;;;5074880;28;20456;-73
2021/08/08 00:19:25;;;;;;;5.60;1.40;;;19.20;77.00;;;;;;5074711;28;20505;-73
2021/08/08 00:21:52;;;;;;;3.90;1.20;;;19.10;76.40;;;;;;5074265;28;20961;-74
2021/08/08 00:24:19;;;;;;;6.40;1.40;;;19.10;76.00;;;;;;5074314;28;20862;-75
2021/08/08 00:26:47;;;;;;;7.40;1.63;;;19.10;76.30;;;;;;5074524;28;20526;-75
2021/08/08 00:29:13;;;;;;;6.97;1.47;;;19.10;76.60;;;;;;5074541;28;20503;-75
2021/08/08 00:31:40;;;;;;;4.10;1.70;;;19.10;76.70;;;;;;5074527;28;20449;-75
2021/08/08 00:34:07;;;;;;;5.70;1.37;;;19.00;76.50;;;;;;5074455;28;20448;-75
2021/08/08 00:36:35;;;;;;;7.00;1.83;;;19.00;77.00;;;;;;5074347;28;20472;-75
2021/08/08 00:39:02;;;;;;;6.20;2.33;;;19.00;76.50;;;;;;5074346;28;20451;-75
2021/08/08 00:41:28;;;;;;;4.27;1.50;;;19.00;76.70;;;;;;5074327;28;20449;-75
2021/08/08 00:43:56;;;;;;;3.27;1.90;;;19.00;77.10;;;;;;5075119;28;20445;-76
2021/08/08 00:46:23;;;;;;;4.23;1.93;;;18.90;76.60;;;;;;5074048;28;20484;-76
2021/08/08 00:48:50;;;;;;;3.53;1.93;;;18.90;77.10;;;;;;5074191;28;20472;-76
2021/08/08 00:51:16;;;;;;;6.40;1.97;;;18.80;76.80;;;;;;5074117;28;20437;-74
2021/08/08 00:53:43;;;;;;;4.63;2.07;;;18.90;77.50;;;;;;5074088;28;20449;-76
2021/08/08 00:56:11;;;;;;;4.50;1.90;;;18.90;78.30;;;;;;5073074;28;20471;-76
2021/08/08 00:58:38;;;;;;;5.13;1.73;;;18.80;76.90;;;;;;5073746;28;21005;-75
2021/08/08 01:01:08;;;;;;;4.13;1.80;;;18.80;76.70;;;;;;5073971;28;20449;-75
2021/08/08 01:03:35;;;;;;;7.10;2.10;;;18.80;77.40;;;;;;5073831;28;20947;-75
2021/08/08 01:06:06;;;;;;;2.80;1.47;;;18.80;77.60;;;;;;5073455;28;20883;-74
2021/08/08 01:08:33;;;;;;;3.93;2.20;;;18.80;77.30;;;;;;5073963;28;20463;-74
2021/08/08 01:11:01;;;;;;;5.07;1.80;;;18.80;77.50;;;;;;5073827;28;20456;-74
2021/08/08 01:13:30;;;;;;;3.20;1.70;;;18.80;77.60;;;;;;5073843;28;20498;-75
2021/08/08 01:15:57;;;;;;;4.37;1.80;;;18.80;77.60;;;;;;5073713;28;20469;-75
2021/08/08 01:18:26;;;;;;;5.33;2.07;;;18.80;77.20;;;;;;5073746;28;20513;-74
2021/08/08 01:20:53;;;;;;;6.07;1.90;;;18.80;77.10;;;;;;5073375;28;20806;-75
2021/08/08 01:23:21;;;;;;;8.37;2.40;;;18.70;77.50;;;;;;5073349;28;20475;-74
2021/08/08 01:25:51;;;;;;;4.47;1.90;;;18.70;77.60;;;;;;5073510;28;20670;-75
2021/08/08 01:28:18;;;;;;;5.47;2.03;;;18.60;77.70;;;;;;5073628;28;20448;-75
2021/08/08 01:30:45;;;;;;;5.40;1.90;;;18.70;77.70;;;;;;5073564;28;20443;-74
2021/08/08 01:33:12;;;;;;;8.40;1.80;;;18.70;78.20;;;;;;5073543;28;20445;-76
2021/08/08 01:35:39;;;;;;;3.53;1.40;;;18.70;78.50;;;;;;5073471;28;20461;-76
2021/08/08 01:38:08;;;;;;;5.47;2.07;;;18.60;77.20;;;;;;5073519;28;20444;-76
2021/08/08 01:40:38;;;;;;;4.93;1.90;;;18.60;77.40;;;;;;5073474;28;20531;-76
2021/08/08 01:43:10;;;;;;;3.03;1.87;;;18.60;77.60;;;;;;5073494;28;20497;-76
2021/08/08 01:45:40;;;;;;;3.83;2.13;;;18.50;77.30;;;;;;5073346;28;20534;-76
2021/08/08 01:48:09;;;;;;;5.50;1.70;;;18.60;78.10;;;;;;5073465;28;20440;-76
2021/08/08 01:50:36;;;;;;;5.47;1.90;;;18.60;77.70;;;;;;5073421;28;20498;-75
2021/08/08 01:53:04;;;;;;;3.97;1.70;;;18.60;78.00;;;;;;5073394;28;20502;-76
2021/08/08 01:55:31;;;;;;;7.53;2.40;;;18.60;77.80;;;;;;5073256;28;20506;-75
2021/08/08 01:57:59;;;;;;;13.77;2.23;;;18.60;77.20;;;;;;5073339;28;20444;-76
2021/08/08 02:00:28;;;;;;;8.43;1.83;;;18.60;77.10;;;;;;5073049;28;20437;-76
2021/08/08 02:02:56;;;;;;;3.33;1.77;;;18.50;77.30;;;;;;5073303;28;20850;-76
2021/08/08 02:05:24;;;;;;;5.40;2.47;;;18.50;77.40;;;;;;5073089;28;20465;-76
2021/08/08 02:07:50;;;;;;;6.97;2.20;;;18.50;77.80;;;;;;5075986;28;20448;-76
2021/08/08 02:10:17;;;;;;;4.80;2.10;;;18.50;77.50;;;;;;5077253;28;20489;-76
2021/08/08 02:12:44;;;;;;;5.40;2.50;;;18.40;77.20;;;;;;5077162;28;20531;-75
2021/08/08 02:15:11;;;;;;;6.57;2.17;;;18.50;77.30;;;;;;5077082;28;20457;-75
2021/08/08 02:17:40;;;;;;;9.63;1.90;;;18.50;76.90;;;;;;5077094;28;20444;-75
2021/08/08 02:20:10;;;;;;;10.40;2.70;;;18.40;77.10;;;;;;5077070;28;20451;-75
2021/08/08 02:22:37;;;;;;;7.57;2.27;;;18.40;77.20;;;;;;5076704;28;20456;-76
2021/08/08 02:25:04;;;;;;;4.67;2.50;;;18.30;76.40;;;;;;5076877;28;20468;-76
2021/08/08 02:27:31;;;;;;;3.63;2.00;;;18.30;76.80;;;;;;5076883;28;20472;-76
2021/08/08 02:29:58;;;;;;;7.30;2.10;;;18.20;76.50;;;;;;5076797;28;20532;-76
2021/08/08 02:32:24;;;;;;;3.87;2.30;;;18.20;76.70;;;;;;5076525;28;20856;-75
2021/08/08 02:34:52;;;;;;;2.30;1.67;;;18.10;76.60;;;;;;5076680;28;20509;-75
2021/08/08 02:37:19;;;;;;;6.27;2.30;;;18.10;76.70;;;;;;5076719;28;20436;-75
2021/08/08 02:39:46;;;;;;;7.77;2.30;;;18.10;76.50;;;;;;5076669;28;20848;-75
2021/08/08 02:42:12;;;;;;;9.23;3.20;;;18.10;76.30;;;;;;5076317;28;20965;-75
2021/08/08 02:44:39;;;;;;;9.87;3.30;;;18.00;76.80;;;;;;5076231;28;20468;-75
2021/08/08 02:47:06;;;;;;;5.60;2.23;;;18.00;76.90;;;;;;5076490;28;20534;-75
2021/08/08 02:49:33;;;;;;;6.83;2.30;;;18.00;77.10;;;;;;5076189;28;20933;-76
2021/08/08 02:52:01;;;;;;;4.97;1.95;;;18.00;77.00;;;;;;5076398;28;20539;-75
2021/08/08 02:54:27;;;;;;;8.73;2.70;;;18.00;76.40;;;;;;5076043;28;20672;-75
2021/08/08 02:56:54;;;;;;;6.13;2.00;;;18.00;76.70;;;;;;5076383;28;20436;-76
2021/08/08 02:59:20;;;;;;;6.43;2.13;;;18.00;76.30;;;;;;5076379;28;20503;-76
2021/08/08 03:01:47;;;;;;;10.37;3.63;;;18.00;76.70;;;;;;5076315;28;20448;-75
2021/08/08 03:04:14;;;;;;;8.47;2.57;;;18.00;76.50;;;;;;5076244;28;20453;-75
2021/08/08 03:06:45;;;;;;;8.23;2.13;;;17.90;76.60;;;;;;5076042;28;20525;-76
2021/08/08 03:09:13;;;;;;;11.67;2.30;;;17.90;76.60;;;;;;5076185;28;20425;-76
2021/08/08 03:11:45;;;;;;;10.67;3.33;;;17.90;76.30;;;;;;5075804;28;20946;-76
2021/08/08 03:14:13;;;;;;;7.87;2.77;;;18.00;76.60;;;;;;5076058;28;20426;-75
2021/08/08 03:16:40;;;;;;;5.37;2.47;;;18.00;77.10;;;;;;5076001;28;20503;-76
2021/08/08 03:19:06;;;;;;;7.93;2.27;;;18.00;76.30;;;;;;5074540;28;20820;-74
2021/08/08 03:21:33;;;;;;;6.53;2.60;;;18.00;76.10;;;;;;5075794;28;20448;-74
2021/08/08 03:24:00;;;;;;;6.10;2.00;;;18.00;76.10;;;;;;5075634;28;20424;-74
2021/08/08 03:26:28;;;;;;;11.00;2.70;;;18.00;76.00;;;;;;5075683;28;20484;-76
2021/08/08 03:28:55;;;;;;;5.17;2.77;;;18.00;76.00;;;;;;5075837;28;20444;-76
2021/08/08 03:31:22;;;;;;;8.00;2.00;;;18.00;75.90;;;;;;5075434;28;20859;-75
2021/08/08 03:33:49;;;;;;;4.60;2.03;;;18.00;76.30;;;;;;5075716;28;20436;-75
2021/08/08 03:36:15;;;;;;;4.93;2.50;;;18.00;76.10;;;;;;5075574;28;20464;-75
2021/08/08 03:38:42;;;;;;;13.03;2.90;;;18.00;76.30;;;;;;5075622;28;20498;-75
2021/08/08 03:41:09;;;;;;;5.40;1.80;;;18.00;76.20;;;;;;5075265;28;20475;-75
2021/08/08 03:43:37;;;;;;;13.90;2.87;;;17.90;76.00;;;;;;5075512;28;20440;-75
2021/08/08 03:46:03;;;;;;;4.67;2.43;;;18.00;76.30;;;;;;5075341;28;20484;-75
2021/08/08 03:48:30;;;;;;;4.80;2.43;;;17.90;76.30;;;;;;5075418;28;20780;-76
2021/08/08 03:50:57;;;;;;;7.63;2.30;;;17.90;76.10;;;;;;5075079;28;20498;-75
2021/08/08 03:53:23;;;;;;;8.90;2.40;;;17.80;76.30;;;;;;5075323;28;20445;-75
2021/08/08 03:55:50;;;;;;;9.00;2.43;;;17.80;76.10;;;;;;5075241;28;20471;-76
2021/08/08 03:58:17;;;;;;;8.10;2.80;;;17.90;76.40;;;;;;5075224;28;20455;-75
2021/08/08 04:00:45;;;;;;;8.33;3.17;;;17.90;76.70;;;;;;5075196;28;20490;-76
2021/08/08 04:03:11;;;;;;;6.00;2.90;;;17.80;76.10;;;;;;5074842;28;20930;-75
2021/08/08 04:05:38;;;;;;;6.23;2.80;;;17.80;76.50;;;;;;5074716;28;21003;-76
2021/08/08 04:08:05;;;;;;;6.23;3.00;;;17.80;77.20;;;;;;5074953;28;20506;-76
2021/08/08 04:10:32;;;;;;;7.93;2.93;;;17.80;76.90;;;;;;5074641;28;20851;-76
2021/08/08 04:12:58;;;;;;;9.20;2.80;;;17.70;76.70;;;;;;5074655;28;20449;-74
2021/08/08 04:15:25;;;;;;;5.10;2.80;;;17.80;76.90;;;;;;5074447;28;20465;-76
2021/08/08 04:17:53;;;;;;;9.43;3.23;;;17.80;76.70;;;;;;5074802;28;20437;-75
2021/08/08 04:20:20;;;;;;;8.47;2.80;;;17.80;76.80;;;;;;5074813;28;20440;-75
2021/08/08 04:22:47;;;;;;;8.53;3.20;;;17.80;77.50;;;;;;5074445;28;20457;-75
2021/08/08 04:25:13;;;;;;;12.63;3.13;;;17.70;76.40;;;;;;5074578;28;20522;-76
2021/08/08 04:27:40;;;;;;;5.53;2.67;;;17.70;76.50;;;;;;5074587;28;20480;-75
2021/08/08 04:30:07;;;;;;;8.93;3.00;;;17.70;76.80;;;;;;5074398;28;20440;-76
2021/08/08 04:32:34;;;;;;;9.30;2.87;;;17.70;76.80;;;;;;5074530;28;20445;-76
2021/08/08 04:35:02;;;;;;;10.00;2.80;;;17.80;76.90;;;;;;5074410;28;20464;-75
2021/08/08 04:37:29;;;;;;;10.27;3.40;;;17.80;76.80;;;;;;5074453;28;20533;-75
2021/08/08 04:39:55;;;;;;;9.00;2.70;;;17.80;76.90;;;;;;5074402;28;20445;-75
2021/08/08 04:42:22;;;;;;;6.53;3.13;;;17.80;76.80;;;;;;5074372;28;20448;-75
2021/08/08 04:44:49;;;;;;;8.93;3.00;;;17.70;76.80;;;;;;5073952;28;20461;-75
2021/08/08 04:47:15;;;;;;;13.30;3.73;;;17.70;77.20;;;;;;5074176;28;20530;-75
2021/08/08 04:49:42;;;;;;;7.50;3.33;;;17.70;77.30;;;;;;5074206;28;20494;-76
2021/08/08 04:52:10;;;;;;;9.10;3.20;;;17.70;77.60;;;;;;5074182;28;20437;-75
2021/08/08 04:54:37;;;;;;;6.37;2.83;;;17.80;77.60;;;;;;5074087;28;20448;-75
2021/08/08 04:57:04;;;;;;;7.80;2.53;;;17.80;77.70;;;;;;5074083;28;20436;-75
2021/08/08 04:59:30;;;;;;;9.60;3.23;;;17.80;77.80;;;;;;5074021;28;20463;-75
2021/08/08 05:01:57;;;;;;;6.03;2.17;;;17.80;77.20;;;;;;5074040;28;20451;-76
2021/08/08 05:04:24;;;;;;;11.10;3.17;;;17.80;77.60;;;;;;5073589;28;20822;-76
2021/08/08 05:06:50;;;;;;;10.47;3.20;;;17.80;77.90;;;;;;5073578;28;21025;-75
2021/08/08 05:09:19;;;;;;;7.03;2.43;;;17.90;77.70;;;;;;5073552;28;20988;-75
2021/08/08 05:11:46;;;;;;;9.60;2.57;;;17.90;77.70;;;;;;5073941;28;20811;-76
2021/08/08 05:14:12;;;;;;;9.87;3.33;;;17.90;77.20;;;;;;5073813;28;20449;-75
2021/08/08 05:16:39;;;;;;;10.57;3.70;;;18.00;77.30;;;;;;5073719;28;20461;-76
2021/08/08 05:19:05;;;;;;;9.17;2.53;;;18.00;77.10;;;;;;5073750;28;20452;-76
2021/08/08 05:21:32;;;;;;;11.20;3.30;;;18.00;76.80;;;;;;5073566;28;20820;-76
2021/08/08 05:23:59;;;;;;;10.03;3.17;;;18.00;76.90;;;;;;5073425;28;20818;-76
2021/08/08 05:26:27;;;;;;;10.93;2.50;;;18.00;76.40;;;;;;5073557;28;20810;-76
2021/08/08 05:28:53;;;;;;;8.97;2.27;;;18.10;76.30;;;;;;5073652;28;20445;-75
2021/08/08 05:31:20;;;;;;;10.70;2.90;;;18.10;75.50;;;;;;5073639;28;20425;-76
2021/08/08 05:33:47;;;;;;;10.77;3.07;;;18.10;75.90;;;;;;5073637;28;20445;-76
2021/08/08 05:36:13;;;;;;;8.83;3.10;;;18.10;75.50;;;;;;5073501;28;20514;-76
2021/08/08 05:38:40;;;;;;;12.63;2.97;;;18.00;75.60;;;;;;5073524;28;20447;-76
2021/08/08 05:41:07;;;;;;;6.73;2.90;;;18.10;75.90;;;;;;5073006;28;20498;-75
2021/08/08 05:43:35;;;;;;;7.00;2.90;;;18.00;75.50;;;;;;5073399;28;20449;-76
2021/08/08 05:46:02;;;;;;;7.83;2.17;;;18.00;76.30;;;;;;5073412;28;20464;-76
2021/08/08 05:48:28;;;;;;;7.10;3.30;;;18.00;76.50;;;;;;5073387;28;20484;-76
2021/08/08 05:50:55;;;;;;;9.50;3.17;;;18.00;76.50;;;;;;5073452;28;20445;-76
2021/08/08 05:53:22;;;;;;;6.77;2.53;;;18.10;76.30;;;;;;5073427;28;20495;-75
2021/08/08 05:55:48;;;;;;;9.10;2.90;;;18.20;75.60;;;;;;5073301;28;20522;-76
2021/08/08 05:58:15;;;;;;;5.17;2.60;;;18.30;75.70;;;;;;5073345;28;20445;-76
2021/08/08 06:00:43;;;;;;;8.83;2.50;;;18.40;75.80;;;;;;5073007;28;20926;-76
2021/08/08 06:03:11;;;;;;;11.23;2.83;;;18.50;75.60;;;;;;5073287;28;20449;-76
2021/08/08 06:05:38;;;;;;;12.37;3.10;;;18.50;74.30;;;;;;5073213;28;20464;-76
2021/08/08 06:08:06;;;;;;;7.50;2.80;;;18.60;74.50;;;;;;5072885;28;21017;-76
2021/08/08 06:10:33;;;;;;;9.30;3.13;;;18.60;73.40;;;;;;5073195;28;20440;-76
2021/08/08 06:13:00;;;;;;;9.70;2.57;;;18.60;73.10;;;;;;5073243;28;20497;-75
2021/08/08 06:15:27;;;;;;;8.90;2.23;;;18.60;72.50;;;;;;5072785;28;20997;-76
2021/08/08 06:17:55;;;;;;;11.60;2.80;;;18.70;73.00;;;;;;5073154;28;20440;-75
2021/08/08 06:20:21;;;;;;;6.10;2.43;;;18.80;74.10;;;;;;5073074;28;20452;-76
2021/08/08 06:22:48;;;;;;;9.07;2.70;;;18.80;72.40;;;;;;5072812;28;20452;-76
2021/08/08 06:25:15;;;;;;;8.97;2.00;;;18.80;72.60;;;;;;5073003;28;20464;-76
2021/08/08 06:27:42;;;;;;;8.50;2.50;;;18.80;72.20;;;;;;5072976;28;20476;-76
2021/08/08 06:30:10;;;;;;;5.13;3.40;;;18.80;72.90;;;;;;5072949;28;20444;-76
2021/08/08 06:32:36;;;;;;;7.77;2.87;;;18.80;72.10;;;;;;5072743;28;20930;-76
2021/08/08 06:35:05;;;;;;;7.03;2.60;;;18.70;72.90;;;;;;5072946;28;20465;-76
2021/08/08 06:37:32;;;;;;;6.00;2.90;;;18.80;72.20;;;;;;5072953;28;20822;-76
2021/08/08 06:39:59;;;;;;;9.87;2.77;;;18.80;72.70;;;;;;5072923;28;20444;-76
2021/08/08 06:42:26;;;;;;;3.73;2.40;;;18.90;73.30;;;;;;5072642;28;20783;-76
2021/08/08 06:44:52;;;;;;;9.13;2.57;;;18.90;72.40;;;;;;5072841;28;20464;-76
2021/08/08 06:47:19;;;;;;;4.67;2.10;;;18.90;71.50;;;;;;5072849;28;20476;-76
2021/08/08 06:49:45;;;;;;;5.10;3.07;;;18.90;72.20;;;;;;5072884;28;20444;-76
2021/08/08 06:52:13;;;;;;;9.90;2.37;;;18.90;73.00;;;;;;5072850;28;20494;-75
2021/08/08 06:54:40;;;;;;;9.47;2.63;;;18.90;72.30;;;;;;5076426;28;20518;-76
2021/08/08 06:57:07;;;;;;;6.87;2.47;;;19.00;71.70;;;;;;5076421;28;20433;-76
2021/08/08 06:59:38;;;;;;;7.33;2.50;;;19.00;72.60;;;;;;5076165;28;20938;-76
2021/08/08 07:02:04;;;;;;;5.20;2.80;;;19.00;71.80;;;;;;5076483;28;20421;-76
2021/08/08 07:04:31;;;;;;;5.33;2.70;;;19.00;71.00;;;;;;5076237;28;20440;-76
2021/08/08 07:06:58;;;;;;;17.97;3.33;;;18.90;70.60;;;;;;5077366;28;20453;-76
2021/08/08 07:09:26;;;;;;;6.70;3.57;;;18.90;71.30;;;;;;5080116;28;20467;-76
2021/08/08 07:11:52;;;;;;;7.10;3.70;;;18.90;70.80;;;;;;5076957;28;20788;-75
2021/08/08 07:14:19;;;;;;;10.90;3.20;;;18.80;70.60;;;;;;5076309;28;20996;-76
2021/08/08 07:16:45;;;;;;;8.30;2.80;;;18.80;71.00;;;;;;5076218;28;20860;-76
2021/08/08 07:19:12;;;;;;;9.07;2.57;;;18.70;71.00;;;;;;5076456;28;20456;-76
2021/08/08 07:21:39;;;;;;;8.63;2.90;;;18.80;70.70;;;;;;5076099;28;20444;-75
2021/08/08 07:24:05;;;;;;;12.30;2.90;;;18.90;71.40;;;;;;5076183;28;20437;-76
2021/08/08 07:26:33;;;;;;;6.50;2.80;;;19.00;70.40;;;;;;5075961;28;20464;-76
2021/08/08 07:29:01;;;;;;;9.50;2.90;;;19.20;71.40;;;;;;5075845;28;20487;-75
2021/08/08 07:31:27;;;;;;;13.93;2.77;;;19.30;70.50;;;;;;5075952;28;20447;-75
2021/08/08 07:33:54;;;;;;;6.67;2.60;;;19.30;67.50;;;;;;5075813;28;20445;-75
2021/08/08 07:36:21;;;;;;;9.07;2.80;;;19.40;67.30;;;;;;5075685;28;20469;-75
2021/08/08 07:38:48;;;;;;;8.80;2.93;;;19.40;67.40;;;;;;5075753;28;20445;-75
2021/08/08 07:41:15;;;;;;;11.80;2.87;;;19.60;67.00;;;;;;5075387;28;20433;-75
2021/08/08 07:43:43;;;;;;;5.80;2.60;;;19.60;66.40;;;;;;5075291;28;20934;-75
2021/08/08 07:46:09;;;;;;;9.23;2.83;;;19.70;66.10;;;;;;5075515;28;20864;-75
2021/08/08 07:48:36;;;;;;;5.10;2.10;;;19.70;64.60;;;;;;5075105;28;20990;-75
2021/08/08 07:51:03;;;;;;;9.30;3.63;;;19.70;66.30;;;;;;5075458;28;20518;-75
2021/08/08 07:53:30;;;;;;;10.63;3.33;;;19.70;63.70;;;;;;5075540;28;20490;-75
2021/08/08 07:55:56;;;;;;;14.17;3.20;;;19.60;64.60;;;;;;5075428;28;20461;-75
2021/08/08 07:58:23;;;;;;;7.07;2.90;;;19.60;63.90;;;;;;5075258;28;20440;-75
2021/08/08 08:00:51;;;;;;;6.10;2.80;;;19.50;65.00;;;;;;5075276;28;20510;-75
2021/08/08 08:03:18;;;;;;;10.27;2.70;;;19.60;64.50;;;;;;5075278;28;20540;-75
2021/08/08 08:05:45;;;;;;;11.47;2.97;;;19.70;65.10;;;;;;5074556;28;20518;-75
2021/08/08 08:08:11;;;;;;;9.30;2.80;;;19.80;63.80;;;;;;5075036;28;20483;-75
2021/08/08 08:10:38;;;;;;;9.50;3.07;;;19.80;64.60;;;;;;5074747;28;20943;-75
2021/08/08 08:13:05;;;;;;;8.57;2.60;;;20.00;65.10;;;;;;5074670;28;20870;-75
2021/08/08 08:15:31;;;;;;;8.37;3.20;;;20.20;65.10;;;;;;5074833;28;20555;-75
2021/08/08 08:18:00;;;;;;;11.50;3.10;;;20.50;64.40;;;;;;5074844;28;20445;-75
2021/08/08 08:20:26;;;;;;;10.13;3.27;;;20.60;61.10;;;;;;5074860;28;20445;-76
2021/08/08 08:22:53;;;;;;;7.73;2.47;;;20.70;61.10;;;;;;5074439;28;20818;-75
2021/08/08 08:25:20;;;;;;;6.33;2.57;;;21.00;60.10;;;;;;5074744;28;20467;-75
2021/08/08 08:27:47;;;;;;;8.40;2.70;;;21.20;60.00;;;;;;5074576;28;20480;-76
2021/08/08 08:30:14;;;;;;;8.63;3.00;;;21.30;57.70;;;;;;5074741;28;20445;-75
2021/08/08 08:32:40;;;;;;;12.20;3.33;;;21.20;59.00;;;;;;5074611;28;20444;-76
2021/08/08 08:35:09;;;;;;;6.27;2.90;;;21.20;58.80;;;;;;5074125;28;20835;-74
2021/08/08 08:37:37;;;;;;;7.40;2.57;;;21.10;58.50;;;;;;5074546;28;20437;-74
2021/08/08 08:40:05;;;;;;;8.07;2.50;;;21.10;58.30;;;;;;5074490;28;20457;-74
2021/08/08 08:42:34;;;;;;;6.10;2.73;;;21.00;58.90;;;;;;5074426;28;20445;-76
2021/08/08 08:45:01;;;;;;;7.70;2.67;;;21.10;59.30;;;;;;5074320;28;20464;-74
2021/08/08 08:47:30;;;;;;;8.97;2.07;;;21.20;57.70;;;;;;5074004;28;20958;-74
2021/08/08 08:49:59;;;;;;;8.30;3.27;;;21.50;57.60;;;;;;5074312;28;20441;-76
2021/08/08 08:52:28;;;;;;;7.50;2.50;;;21.60;56.80;;;;;;5073886;28;20938;-75
2021/08/08 08:54:56;;;;;;;9.37;2.80;;;21.70;56.90;;;;;;5073850;28;20467;-75
2021/08/08 08:57:23;;;;;;;9.40;3.17;;;21.70;57.20;;;;;;5074140;28;20445;-76
2021/08/08 08:59:50;;;;;;;10.70;2.77;;;21.80;57.60;;;;;;5074038;28;20456;-74
2021/08/08 09:02:17;;;;;;;7.17;2.73;;;21.80;55.60;;;;;;5073752;28;20448;-76
2021/08/08 09:04:44;;;;;;;7.93;2.30;;;21.80;55.60;;;;;;5073934;28;20471;-75
2021/08/08 09:07:11;;;;;;;12.00;2.70;;;21.90;55.50;;;;;;5073633;28;20943;-75
2021/08/08 09:09:39;;;;;;;9.93;2.63;;;22.00;55.50;;;;;;5073806;28;20480;-75
2021/08/08 09:12:06;;;;;;;7.53;2.53;;;21.90;54.60;;;;;;5073848;28;20452;-75
2021/08/08 09:14:34;;;;;;;6.47;2.53;;;21.90;55.50;;;;;;5073787;28;20441;-75
2021/08/08 09:17:01;;;;;;;14.93;3.30;;;21.80;55.50;;;;;;5072975;28;20448;-75
2021/08/08 09:19:31;;;;;;;8.07;2.10;;;21.70;55.10;;;;;;5073774;28;20441;-75
2021/08/08 09:21:58;;;;;;;9.00;2.80;;;21.60;56.30;;;;;;5073606;28;20457;-75
2021/08/08 09:24:27;;;;;;;5.20;2.10;;;21.80;56.20;;;;;;5073594;28;20452;-75
2021/08/08 09:27:03;;;;;;;7.70;2.20;;;22.10;55.40;;;;;;5073696;28;20858;-75
2021/08/08 09:29:30;;;;;;;8.53;2.73;;;22.50;53.90;;;;;;5073606;28;20469;-75
2021/08/08 09:31:58;;;;;;;9.27;3.60;;;22.70;52.70;;;;;;5073651;28;20502;-75
2021/08/08 09:34:27;;;;;;;6.50;2.10;;;22.60;51.80;;;;;;5073558;28;20506;-75
2021/08/08 09:36:55;;;;;;;8.03;2.30;;;22.60;52.70;;;;;;5073259;28;20449;-75
2021/08/08 09:39:33;;;;;;;9.23;2.60;;;22.60;52.30;;;;;;5073580;28;20440;-75
2021/08/08 09:42:13;;;;;;;10.53;2.40;;;22.40;52.70;;;;;;5073511;28;20433;-75
2021/08/08 09:44:51;;;;;;;10.77;2.53;;;22.50;53.20;;;;;;5073501;28;20478;-74
2021/08/08 09:47:18;;;;;;;4.80;1.80;;;22.50;52.00;;;;;;5073479;28;20482;-75
2021/08/08 09:49:54;;;;;;;8.97;3.23;;;22.50;52.30;;;;;;5073321;28;20489;-74
2021/08/08 09:52:22;;;;;;;7.70;2.40;;;22.50;52.10;;;;;;5073426;28;20515;-74
2021/08/08 09:54:48;;;;;;;6.90;2.33;;;22.40;52.50;;;;;;5073546;28;20526;-74
2021/08/08 09:57:16;;;;;;;9.10;2.30;;;22.30;53.00;;;;;;5073353;28;20494;-76
2021/08/08 09:59:46;;;;;;;5.83;2.30;;;22.40;52.50;;;;;;5073324;28;20614;-76
2021/08/08 10:02:19;;;;;;;11.07;2.80;;;22.40;53.10;;;;;;5073313;28;20638;-75
2021/08/08 10:04:46;;;;;;;7.73;1.70;;;22.40;53.50;;;;;;5073271;28;20473;-74
2021/08/08 10:07:14;;;;;;;4.50;1.50;;;22.40;53.10;;;;;;5073285;28;20449;-74
2021/08/08 10:09:40;;;;;;;9.27;2.07;;;22.30;52.30;;;;;;5073265;28;20525;-75
2021/08/08 10:12:21;;;;;;;7.70;1.90;;;22.40;52.20;;;;;;5073011;28;20437;-74
2021/08/08 10:14:51;;;;;;;10.47;2.60;;;22.50;51.70;;;;;;5073174;28;20823;-74
2021/08/08 10:17:19;;;;;;;5.47;2.17;;;22.60;51.30;;;;;;5073513;28;20440;-74
2021/08/08 10:19:47;;;;;;;6.53;2.20;;;22.80;51.70;;;;;;5073157;28;20445;-74
2021/08/08 10:22:18;;;;;;;10.47;2.17;;;23.10;51.10;;;;;;5072949;28;20464;-75
2021/08/08 10:24:45;;;;;;;10.20;2.27;;;23.40;50.30;;;;;;5073059;28;20471;-75
2021/08/08 10:27:12;;;;;;;6.60;1.90;;;23.70;49.70;;;;;;5073206;28;20445;-74
2021/08/08 10:29:41;;;;;;;7.27;2.27;;;24.00;49.60;;;;;;5076944;28;20480;-74
2021/08/08 10:32:09;;;;;;;5.23;2.00;;;24.10;48.80;;;;;;5076964;28;20440;-74
2021/08/08 10:34:35;;;;;;;5.93;1.90;;;24.20;48.50;;;;;;5076926;28;20448;-74
2021/08/08 10:37:11;;;;;;;7.73;2.00;;;23.80;48.90;;;;;;5076911;28;20451;-74
2021/08/08 10:39:40;;;;;;;8.73;2.43;;;23.60;49.90;;;;;;5076847;28;20420;-75
2021/08/08 10:42:07;;;;;;;4.00;1.93;;;23.60;49.70;;;;;;5076720;28;20440;-74
2021/08/08 10:44:47;;;;;;;8.27;2.00;;;23.50;49.60;;;;;;5076589;28;20969;-74
2021/08/08 10:47:25;;;;;;;8.13;1.87;;;23.40;51.00;;;;;;5076730;28;20460;-76
2021/08/08 10:49:51;;;;;;;4.50;1.70;;;23.30;51.00;;;;;;5076303;28;20907;-74
2021/08/08 10:52:18;;;;;;;6.23;1.97;;;23.30;49.20;;;;;;5076601;28;20447;-76
2021/08/08 10:54:46;;;;;;;7.63;1.70;;;23.60;50.30;;;;;;5076137;28;20475;-74
2021/08/08 10:57:14;;;;;;;8.33;1.90;;;23.80;49.00;;;;;;5076320;28;20562;-74
2021/08/08 10:59:47;;;;;;;5.07;1.60;;;24.20;48.60;;;;;;5076425;28;20433;-74
2021/08/08 11:02:15;;;;;;;8.47;2.17;;;24.50;48.00;;;;;;5076255;28;20812;-74
2021/08/08 11:04:42;;;;;;;6.63;1.57;;;24.90;48.00;;;;;;5076226;28;20448;-74
2021/08/08 11:07:11;;;;;;;6.20;2.03;;;25.30;45.20;;;;;;5075934;28;21000;-74
2021/08/08 11:09:39;;;;;;;7.67;2.60;;;25.40;44.90;;;;;;5076107;28;20476;-74
2021/08/08 11:12:07;;;;;;;8.80;1.83;;;25.20;45.80;;;;;;5075826;28;20935;-75
2021/08/08 11:14:34;;;;;;;8.87;2.13;;;25.10;45.30;;;;;;5075989;28;20441;-75
2021/08/08 11:17:04;;;;;;;4.87;1.57;;;24.80;47.10;;;;;;5076054;28;20444;-74
2021/08/08 11:19:35;;;;;;;7.50;1.60;;;24.70;46.90;;;;;;5076035;28;20498;-75
2021/08/08 11:22:10;;;;;;;8.50;1.90;;;24.70;47.40;;;;;;5075621;28;20583;-75
2021/08/08 11:24:37;;;;;;;5.97;1.90;;;24.80;47.30;;;;;;5075514;28;20794;-76
2021/08/08 11:27:04;;;;;;;4.30;1.60;;;24.90;47.20;;;;;;5075518;28;20859;-75
2021/08/08 11:29:31;;;;;;;4.00;1.77;;;25.40;46.60;;;;;;5075558;28;20487;-74
2021/08/08 11:32:04;;;;;;;4.53;1.90;;;26.00;45.70;;;;;;5075492;28;20444;-74
2021/08/08 11:34:31;;;;;;;3.90;1.60;;;26.50;43.80;;;;;;5075771;28;20433;-74
2021/08/08 11:36:58;;;;;;;4.80;1.80;;;27.00;42.80;;;;;;5075745;28;20441;-74
2021/08/08 11:39:32;;;;;;;4.70;1.63;;;27.60;42.90;;;;;;5074871;28;20448;-74
2021/08/08 11:42:03;;;;;;;5.97;1.80;;;28.10;42.20;;;;;;5075559;28;20494;-74
2021/08/08 11:44:38;;;;;;;4.40;1.90;;;28.30;39.00;;;;;;5075378;28;20507;-74
2021/08/08 11:47:07;;;;;;;5.37;1.50;;;27.90;39.80;;;;;;5075442;28;20440;-74
2021/08/08 11:49:43;;;;;;;4.53;1.47;;;27.90;39.10;;;;;;5075311;28;20488;-74
2021/08/08 11:52:13;;;;;;;6.03;1.67;;;27.70;39.90;;;;;;5075471;28;20511;-74
2021/08/08 11:54:40;;;;;;;6.97;2.30;;;27.20;39.90;;;;;;5075523;28;20451;-74
2021/08/08 11:57:07;;;;;;;6.30;1.63;;;27.00;41.90;;;;;;5075376;28;20440;-74
2021/08/08 11:59:35;;;;;;;6.03;1.63;;;27.20;39.90;;;;;;5075251;28;20444;-75
2021/08/08 12:02:03;;;;;;;1.60;1.23;;;27.30;41.20;;;;;;5075239;28;20448;-74
2021/08/08 12:04:33;;;;;;;7.10;1.60;;;27.40;39.80;;;;;;5075112;28;20441;-74
2021/08/08 12:07:02;;;;;;;2.60;1.23;;;27.60;39.20;;;;;;5074859;28;20450;-74
2021/08/08 12:09:29;;;;;;;4.17;1.53;;;27.60;38.80;;;;;;5074649;28;20533;-74
2021/08/08 12:11:56;;;;;;;7.93;1.60;;;27.50;38.80;;;;;;5075034;28;20445;-74
2021/08/08 12:14:31;;;;;;;4.83;1.30;;;27.00;39.40;;;;;;5074535;28;20923;-74
2021/08/08 12:17:02;;;;;;;3.70;1.50;;;27.00;39.60;;;;;;5074532;28;20937;-74
2021/08/08 12:19:31;;;;;;;4.10;1.20;;;27.40;39.00;;;;;;5074899;28;20512;-74
2021/08/08 12:22:03;;;;;;;5.00;1.50;;;27.60;39.00;;;;;;5074569;28;20460;-74
2021/08/08 12:24:39;;;;;;;3.50;1.80;;;27.50;39.30;;;;;;5074702;28;20441;-74
2021/08/08 12:27:07;;;;;;;14.50;1.50;;;27.20;39.30;;;;;;5074746;28;20433;-74
2021/08/08 12:29:36;;;;;;;5.20;1.37;;;27.40;41.60;;;;;;5074230;28;21010;-74
2021/08/08 12:32:07;;;;;;;3.70;1.23;;;28.40;38.70;;;;;;5074559;28;20449;-74
2021/08/08 12:34:35;;;;;;;4.50;1.50;;;28.80;36.30;;;;;;5074169;28;20453;-75
2021/08/08 12:37:07;;;;;;;5.37;1.47;;;28.50;36.00;;;;;;5074538;28;20804;-75
2021/08/08 12:39:35;;;;;;;3.83;1.60;;;27.80;36.80;;;;;;5074494;28;20452;-75
2021/08/08 12:42:02;;;;;;;4.37;1.47;;;27.00;39.60;;;;;;5074486;28;20453;-75
2021/08/08 12:44:36;;;;;;;3.97;1.13;;;26.50;40.70;;;;;;5074235;28;20441;-75
2021/08/08 12:47:05;;;;;;;4.03;1.47;;;26.10;41.50;;;;;;5074390;28;20441;-74
2021/08/08 12:49:37;;;;;;;9.50;2.20;;;25.80;42.50;;;;;;5074263;28;20486;-74